Time;durP1;ratioP1;P1;durP2;ratioP2;P2;SDS_P1;SDS_P2;PMS_P1;PMS_P2;Temp;Humidity;BMP_temperature;BMP_pressure;BME280_temperature;BME280_humidity;BME280_pressure;Samples;Min_cycle;Max_cycle;Signal;HPM_P1;HPM_P2
2022/05/31 00:00:33;;;;;;;;;;;;;;;22.80;40.17;101368.94;2068491;28;1357;-57
2022/05/31 00:01:33;;;;;;;;;;;;;;;22.81;39.63;101364.44;2068614;28;1120;-57
2022/05/31 00:02:34;;;;;;;;;;;;;;;22.80;39.32;101359.97;2077286;28;855;-56
2022/05/31 00:03:34;;;;;;;;;;;;;;;22.80;39.88;101354.59;2077343;28;1165;-57
2022/05/31 00:04:34;;;;;;;;;;;;;;;22.79;39.42;101358.22;2077276;28;1052;-56
2022/05/31 00:05:35;;;;;;;;;;;;;;;22.79;39.68;101350.13;2077268;28;978;-57
2022/05/31 00:06:35;;;;;;;;;;;;;;;22.78;39.48;101351.91;2077317;28;883;-56
2022/05/31 00:07:39;;;;;;;;;;;;;;;22.78;40.23;101348.34;2077257;28;915;-56
2022/05/31 00:08:39;;;;;;;;;;;;;;;22.77;39.65;101351.97;2077209;28;1878;-57
2022/05/31 00:09:39;;;;;;;;;;;;;;;22.76;39.64;101345.69;2076669;28;1341;-57
2022/05/31 00:10:40;;;;;;;;;;;;;;;22.75;40.36;101338.53;2076677;28;772;-57
2022/05/31 00:11:43;;;;;;;;;;;;;;;22.74;39.63;101342.16;2077269;28;1036;-57
2022/05/31 00:12:43;;;;;;;;;;;;;;;22.74;40.06;101344.00;2077257;28;890;-56
2022/05/31 00:13:44;;;;;;;;;;;;;;;22.73;40.13;101343.09;2077396;28;791;-57
2022/05/31 00:14:44;;;;;;;;;;;;;;;22.72;40.23;101335.94;2077237;28;820;-56
2022/05/31 00:15:44;;;;;;;;;;;;;;;22.72;39.81;101340.47;2077305;28;828;-56
2022/05/31 00:16:45;;;;;;;;;;;;;;;22.72;40.59;101344.03;2077246;28;769;-56
2022/05/31 00:17:45;;;;;;;;;;;;;;;22.72;40.36;101335.06;2077159;28;1301;-57
2022/05/31 00:18:45;;;;;;;;;;;;;;;22.71;40.70;101336.00;2077208;28;1056;-57
2022/05/31 00:19:46;;;;;;;;;;;;;;;22.71;40.00;101336.00;2077197;28;832;-56
2022/05/31 00:20:46;;;;;;;;;;;;;;;22.70;40.03;101335.09;2077271;28;887;-57
2022/05/31 00:21:51;;;;;;;;;;;;;;;22.71;40.30;101330.59;2077205;28;1018;-57
2022/05/31 00:22:52;;;;;;;;;;;;;;;22.69;40.12;101327.06;2077275;28;981;-56
2022/05/31 00:23:52;;;;;;;;;;;;;;;22.68;40.66;101328.00;2077215;28;1013;-57
2022/05/31 00:24:52;;;;;;;;;;;;;;;22.69;40.64;101327.06;2077198;28;990;-56
2022/05/31 00:25:52;;;;;;;;;;;;;;;22.67;40.17;101324.41;2077194;28;986;-56
2022/05/31 00:26:52;;;;;;;;;;;;;;;22.67;40.23;101321.69;2076505;28;1009;-56
2022/05/31 00:27:53;;;;;;;;;;;;;;;22.67;40.03;101323.53;2076660;28;862;-56
2022/05/31 00:28:53;;;;;;;;;;;;;;;22.65;40.82;101324.47;2077164;28;1922;-56
2022/05/31 00:29:53;;;;;;;;;;;;;;;22.65;40.79;101324.47;2077167;28;780;-56
2022/05/31 00:30:53;;;;;;;;;;;;;;;22.64;40.92;101322.69;2077196;28;982;-57
2022/05/31 00:31:53;;;;;;;;;;;;;;;22.64;40.41;101324.53;2077160;28;998;-56
2022/05/31 00:32:54;;;;;;;;;;;;;;;22.65;40.16;101319.06;2077223;28;831;-56
2022/05/31 00:33:54;;;;;;;;;;;;;;;22.63;40.69;101322.78;2077149;28;839;-56
2022/05/31 00:34:56;;;;;;;;;;;;;;;22.63;40.35;101322.78;2077149;28;993;-56
2022/05/31 00:35:56;;;;;;;;;;;;;;;22.62;40.32;101321.88;2077214;28;879;-56
2022/05/31 00:36:57;;;;;;;;;;;;;;;22.61;40.35;101320.09;2077192;28;870;-56
2022/05/31 00:37:58;;;;;;;;;;;;;;;22.61;40.22;101311.13;2077107;28;1220;-57
2022/05/31 00:38:58;;;;;;;;;;;;;;;22.61;40.64;101322.81;2077149;28;1025;-56
2022/05/31 00:39:59;;;;;;;;;;;;;;;22.60;40.56;101318.34;2077112;28;804;-56
2022/05/31 00:41:23;;;;;;;;;;;;;;;22.59;40.37;101316.56;2077129;28;848;-56
2022/05/31 00:42:23;;;;;;;;;;;;;;;22.59;41.07;101310.31;2077362;28;819;-56
2022/05/31 00:43:25;;;;;;;;;;;;;;;22.60;40.88;101317.47;2077129;28;757;-56
2022/05/31 00:44:28;;;;;;;;;;;;;;;22.58;40.95;101314.81;2075053;28;843;-56
2022/05/31 00:45:39;;;;;;;;;;;;;;;22.59;40.99;101311.19;2075863;28;863;-56
2022/05/31 00:46:50;;;;;;;;;;;;;;;22.59;40.69;101318.41;2075854;28;1005;-56
2022/05/31 00:47:51;;;;;;;;;;;;;;;22.57;40.16;101313.03;2075897;28;716;-56
2022/05/31 00:48:57;;;;;;;;;;;;;;;22.57;40.37;101310.34;2075790;28;1894;-56
2022/05/31 00:50:03;;;;;;;;;;;;;;;22.56;40.38;101316.69;2075860;28;859;-56
2022/05/31 00:51:06;;;;;;;;;;;;;;;22.57;40.54;101318.44;2075748;28;1311;-56
2022/05/31 00:52:11;;;;;;;;;;;;;;;22.56;40.65;101313.97;2075829;28;915;-56
2022/05/31 00:53:14;;;;;;;;;;;;;;;22.56;40.68;101308.56;2075833;28;863;-56
2022/05/31 00:54:17;;;;;;;;;;;;;;;22.56;40.50;101307.72;2075807;28;994;-57
2022/05/31 00:55:38;;;;;;;;;;;;;;;22.56;41.28;101305.88;2075899;28;879;-57
2022/05/31 00:56:38;;;;;;;;;;;;;;;22.56;41.25;101310.41;2075142;28;947;-56
2022/05/31 00:57:40;;;;;;;;;;;;;;;22.54;40.51;101307.75;2075914;28;788;-57
2022/05/31 00:58:47;;;;;;;;;;;;;;;22.53;40.81;101299.72;2075858;28;958;-56
2022/05/31 00:59:48;;;;;;;;;;;;;;;22.54;41.23;101307.75;2075798;28;784;-57
2022/05/31 01:00:50;;;;;;;;;;;;;;;22.53;40.75;101299.72;2075714;28;871;-57
2022/05/31 01:01:53;;;;;;;;;;;;;;;22.52;41.41;101301.50;2075763;28;800;-56
2022/05/31 01:02:54;;;;;;;;;;;;;;;22.52;41.33;101296.13;2075754;28;891;-57
2022/05/31 01:03:55;;;;;;;;;;;;;;;22.51;41.41;101297.06;2075753;28;796;-56
2022/05/31 01:04:57;;;;;;;;;;;;;;;22.50;41.40;101304.28;2075697;28;970;-57
2022/05/31 01:05:57;;;;;;;;;;;;;;;22.50;41.43;101293.50;2075714;28;800;-56
2022/05/31 01:06:58;;;;;;;;;;;;;;;22.50;40.58;101296.19;2075684;28;911;-56
2022/05/31 01:07:58;;;;;;;;;;;;;;;22.50;41.39;101295.28;2075703;28;811;-57
2022/05/31 01:08:59;;;;;;;;;;;;;;;22.50;40.75;101298.00;2075614;28;1961;-57
2022/05/31 01:10:00;;;;;;;;;;;;;;;22.50;40.70;101292.59;2075664;28;982;-56
2022/05/31 01:11:01;;;;;;;;;;;;;;;22.49;41.11;101293.53;2075679;28;815;-56
2022/05/31 01:12:03;;;;;;;;;;;;;;;22.48;40.56;101294.47;2075673;28;815;-56
2022/05/31 01:13:03;;;;;;;;;;;;;;;22.49;41.30;101296.22;2075670;28;956;-57
2022/05/31 01:14:04;;;;;;;;;;;;;;;22.49;40.92;101294.41;2075770;28;970;-57
2022/05/31 01:15:06;;;;;;;;;;;;;;;22.49;40.99;101296.22;2075634;28;993;-56
2022/05/31 01:16:08;;;;;;;;;;;;;;;22.48;40.68;101284.56;2075643;28;859;-57
2022/05/31 01:17:12;;;;;;;;;;;;;;;22.48;40.91;101292.66;2075388;28;1086;-56
2022/05/31 01:18:12;;;;;;;;;;;;;;;22.48;40.82;101287.25;2075667;28;1064;-57
2022/05/31 01:19:55;;;;;;;;;;;;;;;22.48;40.94;101283.66;2075621;28;650;-57
2022/05/31 01:20:32;;;;;;;;;;;;;;;22.47;41.06;101280.09;2075485;28;1275;-56
2022/05/31 01:21:33;;;;;;;;;;;;;;;22.47;40.79;101290.00;2075627;28;983;-56
2022/05/31 01:22:38;;;;;;;;;;;;;;;22.47;40.81;101282.78;2075549;28;808;-57
2022/05/31 01:23:56;;;;;;;;;;;;;;;22.46;41.56;101277.44;2075619;28;855;-57
2022/05/31 01:25:01;;;;;;;;;;;;;;;22.46;41.52;101286.44;2075614;28;792;-56
2022/05/31 01:26:03;;;;;;;;;;;;;;;22.46;41.24;101282.81;2075679;28;898;-56
2022/05/31 01:27:08;;;;;;;;;;;;;;;22.46;41.34;101288.22;2075535;28;1061;-56
2022/05/31 01:28:25;;;;;;;;;;;;;;;22.46;40.91;101288.22;2075478;28;1906;-57
2022/05/31 01:29:27;;;;;;;;;;;;;;;22.45;40.70;101289.16;2075623;28;867;-56
2022/05/31 01:30:32;;;;;;;;;;;;;;;22.45;40.80;101286.47;2075739;28;800;-57
2022/05/31 01:31:34;;;;;;;;;;;;;;;22.45;41.36;101290.06;2075456;28;788;-57
2022/05/31 01:32:37;;;;;;;;;;;;;;;22.45;40.92;101292.75;2075508;28;970;-56
2022/05/31 01:33:42;;;;;;;;;;;;;;;22.45;41.16;101286.47;2066685;28;1146;-56
2022/05/31 01:35:04;;;;;;;;;;;;;;;22.45;41.25;101281.06;2067415;28;777;-56
2022/05/31 01:36:07;;;;;;;;;;;;;;;22.44;41.09;101282.00;2075428;28;912;-56
2022/05/31 01:37:07;;;;;;;;;;;;;;;22.44;40.89;101284.69;2075369;28;2169;-57
2022/05/31 01:38:34;;;;;;;;;;;;;;;22.43;41.45;101274.81;2075497;28;1010;-56
2022/05/31 01:39:53;;;;;;;;;;;;;;;22.43;41.08;101274.81;2071429;28;1135;-57
2022/05/31 01:41:02;;;;;;;;;;;;;;;22.43;40.99;101277.50;2075409;28;787;-56
2022/05/31 01:42:13;;;;;;;;;;;;;;;22.42;41.03;101263.13;2075448;28;962;-56
2022/05/31 01:43:13;;;;;;;;;;;;;;;22.42;41.22;101267.63;2075467;28;907;-56
2022/05/31 01:44:15;;;;;;;;;;;;;;;22.41;41.09;101264.06;2075400;28;776;-56
2022/05/31 01:45:17;;;;;;;;;;;;;;;22.42;40.95;101270.34;2075403;28;1037;-56
2022/05/31 01:46:22;;;;;;;;;;;;;;;22.41;41.40;101266.78;2075380;28;796;-56
2022/05/31 01:47:23;;;;;;;;;;;;;;;22.42;41.08;101259.53;2075396;28;806;-56
2022/05/31 01:48:24;;;;;;;;;;;;;;;22.42;40.98;101262.25;2075286;28;1894;-57
2022/05/31 01:49:30;;;;;;;;;;;;;;;22.41;41.70;101255.06;2075355;28;1117;-57
2022/05/31 01:50:31;;;;;;;;;;;;;;;22.41;41.61;101252.38;2075415;28;819;-56
2022/05/31 01:51:32;;;;;;;;;;;;;;;22.40;41.59;101256.91;2075378;28;807;-56
2022/05/31 01:52:32;;;;;;;;;;;;;;;22.39;40.99;101260.53;2075358;28;985;-56
2022/05/31 01:53:33;;;;;;;;;;;;;;;22.41;41.11;101264.06;2075258;28;1131;-56
2022/05/31 01:54:34;;;;;;;;;;;;;;;22.40;40.94;101256.00;2075335;28;1064;-56
2022/05/31 01:55:37;;;;;;;;;;;;;;;22.39;41.75;101252.44;2075187;28;1187;-56
2022/05/31 01:56:39;;;;;;;;;;;;;;;22.39;41.34;101252.44;2075413;28;811;-56
2022/05/31 01:57:40;;;;;;;;;;;;;;;22.40;40.99;101253.31;2075281;28;989;-57
2022/05/31 01:58:44;;;;;;;;;;;;;;;22.39;41.06;101254.25;2075304;28;821;-57
2022/05/31 01:59:47;;;;;;;;;;;;;;;22.39;41.06;101244.34;2075296;28;864;-57
2022/05/31 02:00:47;;;;;;;;;;;;;;;22.40;41.16;101247.91;2075312;28;1048;-56
2022/05/31 02:01:48;;;;;;;;;;;;;;;22.40;41.35;101245.22;2075303;28;867;-56
2022/05/31 02:02:49;;;;;;;;;;;;;;;22.40;41.03;101243.41;2075239;28;1006;-57
2022/05/31 02:03:49;;;;;;;;;;;;;;;22.39;41.77;101248.84;2075428;28;843;-56
2022/05/31 02:04:50;;;;;;;;;;;;;;;22.39;41.70;101238.06;2075270;28;1042;-57
2022/05/31 02:05:51;;;;;;;;;;;;;;;22.38;41.54;101249.78;2075193;28;816;-57
2022/05/31 02:07:10;;;;;;;;;;;;;;;22.37;41.77;101240.81;2075193;28;893;-57
2022/05/31 02:08:10;;;;;;;;;;;;;;;22.38;41.54;101245.28;2075172;28;1894;-56
2022/05/31 02:09:12;;;;;;;;;;;;;;;22.35;41.52;101235.50;2075355;28;748;-56
2022/05/31 02:10:12;;;;;;;;;;;;;;;22.39;41.97;101248.84;2075163;28;1056;-57
2022/05/31 02:11:12;;;;;;;;;;;;;;;22.36;41.73;101239.94;2075218;28;620;-56
2022/05/31 02:12:13;;;;;;;;;;;;;;;22.38;41.50;101241.69;2075239;28;772;-56
2022/05/31 02:13:14;;;;;;;;;;;;;;;22.37;41.56;101243.53;2075184;28;1040;-57
2022/05/31 02:14:14;;;;;;;;;;;;;;;22.36;41.97;101244.44;2075343;28;781;-56
2022/05/31 02:15:15;;;;;;;;;;;;;;;22.36;41.08;101239.06;2075144;28;827;-56
2022/05/31 02:16:15;;;;;;;;;;;;;;;22.36;41.37;101239.06;2075175;28;800;-56
2022/05/31 02:17:18;;;;;;;;;;;;;;;22.36;40.94;101236.34;2075017;28;2120;-56
2022/05/31 02:18:18;;;;;;;;;;;;;;;22.36;41.64;101239.94;2075183;28;970;-57
2022/05/31 02:19:25;;;;;;;;;;;;;;;22.36;41.41;101237.25;2075226;28;978;-56
2022/05/31 02:20:25;;;;;;;;;;;;;;;22.35;41.59;101235.50;2075240;28;796;-57
2022/05/31 02:21:25;;;;;;;;;;;;;;;22.35;41.87;101232.78;2075142;28;1013;-56
2022/05/31 02:22:27;;;;;;;;;;;;;;;22.35;41.34;101234.59;2075095;28;1029;-57
2022/05/31 02:23:27;;;;;;;;;;;;;;;22.35;41.11;101231.88;2075168;28;788;-56
2022/05/31 02:24:27;;;;;;;;;;;;;;;22.35;41.86;101234.59;2075066;28;683;-56
2022/05/31 02:25:28;;;;;;;;;;;;;;;22.35;41.50;101235.50;2075095;28;831;-56
2022/05/31 02:26:28;;;;;;;;;;;;;;;22.34;41.10;101222.94;2075085;28;903;-56
2022/05/31 02:27:29;;;;;;;;;;;;;;;22.34;41.79;101228.31;2075095;28;1026;-57
2022/05/31 02:28:30;;;;;;;;;;;;;;;22.33;41.73;101229.25;2075024;28;1918;-56
2022/05/31 02:29:31;;;;;;;;;;;;;;;22.34;41.00;101235.53;2075015;28;990;-57
2022/05/31 02:30:31;;;;;;;;;;;;;;;22.35;41.88;101240.00;2075208;28;784;-56
2022/05/31 02:31:31;;;;;;;;;;;;;;;22.34;41.14;101227.44;2075040;28;1092;-57
2022/05/31 02:32:32;;;;;;;;;;;;;;;22.33;41.43;101237.34;2075037;28;780;-57
2022/05/31 02:33:32;;;;;;;;;;;;;;;22.33;41.34;101233.75;2075071;28;780;-56
2022/05/31 02:34:35;;;;;;;;;;;;;;;22.33;41.21;101231.06;2074983;28;1124;-57
2022/05/31 02:35:35;;;;;;;;;;;;;;;22.33;41.09;101234.66;2075078;28;847;-56
2022/05/31 02:36:35;;;;;;;;;;;;;;;22.33;41.17;101228.38;2075009;28;997;-57
2022/05/31 02:37:36;;;;;;;;;;;;;;;22.33;41.86;101229.25;2074986;28;1196;-57
2022/05/31 02:38:36;;;;;;;;;;;;;;;22.32;41.51;101223.91;2075078;28;906;-56
2022/05/31 02:39:36;;;;;;;;;;;;;;;22.32;41.11;101224.81;2074990;28;974;-56
2022/05/31 02:40:37;;;;;;;;;;;;;;;22.32;41.43;101229.28;2074977;28;1010;-57
2022/05/31 02:41:37;;;;;;;;;;;;;;;22.32;41.21;101224.81;2074964;28;998;-57
2022/05/31 02:42:37;;;;;;;;;;;;;;;22.31;41.24;101225.72;2074976;28;812;-57
2022/05/31 02:43:37;;;;;;;;;;;;;;;22.31;41.13;101225.72;2075035;28;863;-57
2022/05/31 02:44:38;;;;;;;;;;;;;;;22.32;41.11;101211.31;2075068;28;860;-56
2022/05/31 02:45:38;;;;;;;;;;;;;;;22.31;41.92;101214.03;2074931;28;982;-56
2022/05/31 02:46:39;;;;;;;;;;;;;;;22.32;41.23;101215.81;2074904;28;777;-56
2022/05/31 02:47:40;;;;;;;;;;;;;;;22.31;41.71;101212.25;2074948;28;835;-56
2022/05/31 02:48:40;;;;;;;;;;;;;;;22.31;41.23;101211.34;2074904;28;1878;-56
2022/05/31 02:49:40;;;;;;;;;;;;;;;22.32;41.21;101221.19;2074900;28;903;-57
2022/05/31 02:50:40;;;;;;;;;;;;;;;22.31;41.35;101214.03;2074924;28;796;-56
2022/05/31 02:51:42;;;;;;;;;;;;;;;22.31;41.57;101220.34;2074886;28;1005;-56
2022/05/31 02:52:42;;;;;;;;;;;;;;;22.31;42.07;101219.44;2074950;28;810;-56
2022/05/31 02:53:43;;;;;;;;;;;;;;;22.30;41.49;101218.56;2074848;28;1029;-56
2022/05/31 02:54:43;;;;;;;;;;;;;;;22.30;42.10;101217.69;2074907;28;990;-56
2022/05/31 02:55:43;;;;;;;;;;;;;;;22.30;41.94;101217.69;2074949;28;847;-56
2022/05/31 02:56:43;;;;;;;;;;;;;;;22.29;41.30;101222.22;2074895;28;982;-56
2022/05/31 02:57:43;;;;;;;;;;;;;;;22.29;41.97;101224.91;2074866;28;986;-56
2022/05/31 02:58:44;;;;;;;;;;;;;;;22.29;42.08;101226.72;2074197;28;836;-57
2022/05/31 02:59:44;;;;;;;;;;;;;;;22.29;41.24;101224.91;2074331;28;874;-57
2022/05/31 03:00:44;;;;;;;;;;;;;;;22.30;41.43;101232.06;2066104;28;840;-56
2022/05/31 03:01:44;;;;;;;;;;;;;;;22.31;41.37;101235.63;2066105;28;1018;-56
2022/05/31 03:02:44;;;;;;;;;;;;;;;22.29;41.55;101237.50;2074188;28;986;-56
2022/05/31 03:03:45;;;;;;;;;;;;;;;22.29;41.92;101243.78;2066083;28;808;-56
2022/05/31 03:04:45;;;;;;;;;;;;;;;22.29;41.13;101254.59;2066139;28;1076;-57
2022/05/31 03:05:45;;;;;;;;;;;;;;;22.29;41.55;101251.00;2074754;28;1002;-56
2022/05/31 03:06:45;;;;;;;;;;;;;;;22.29;41.38;101260.00;2074791;28;907;-56
2022/05/31 03:07:45;;;;;;;;;;;;;;;22.29;42.06;101262.69;2074306;28;1041;-56
2022/05/31 03:08:46;;;;;;;;;;;;;;;22.29;41.58;101260.00;2074691;28;1959;-56
2022/05/31 03:09:46;;;;;;;;;;;;;;;22.29;41.61;101251.00;2074817;28;789;-56
2022/05/31 03:10:51;;;;;;;;;;;;;;;22.28;41.62;101244.72;2074833;28;852;-56
2022/05/31 03:11:52;;;;;;;;;;;;;;;22.28;41.40;101242.03;2074791;28;990;-56
2022/05/31 03:12:52;;;;;;;;;;;;;;;22.27;41.32;101232.16;2074754;28;805;-56
2022/05/31 03:13:54;;;;;;;;;;;;;;;22.27;41.74;101226.78;2074801;28;778;-56
2022/05/31 03:14:59;;;;;;;;;;;;;;;22.28;41.29;101219.53;2074733;28;998;-56
2022/05/31 03:16:01;;;;;;;;;;;;;;;22.27;41.92;101215.06;2074790;28;1001;-57
2022/05/31 03:17:10;;;;;;;;;;;;;;;22.28;41.35;101204.25;2074656;28;1156;-57
2022/05/31 03:18:13;;;;;;;;;;;;;;;22.27;41.90;101197.09;2074776;28;796;-57
2022/05/31 03:19:16;;;;;;;;;;;;;;;22.27;41.75;101183.59;2074746;28;1096;-56
2022/05/31 03:20:22;;;;;;;;;;;;;;;22.28;42.05;101184.47;2074731;28;792;-56
2022/05/31 03:21:26;;;;;;;;;;;;;;;22.27;41.49;101191.69;2074765;28;855;-56
2022/05/31 03:22:29;;;;;;;;;;;;;;;22.27;41.63;101191.69;2074743;28;998;-56
2022/05/31 03:23:32;;;;;;;;;;;;;;;22.27;42.14;101190.78;2074781;28;788;-57
2022/05/31 03:24:38;;;;;;;;;;;;;;;22.27;41.66;101186.28;2074765;28;879;-57
2022/05/31 03:25:39;;;;;;;;;;;;;;;22.27;42.24;101189.00;2074739;28;994;-56
2022/05/31 03:26:40;;;;;;;;;;;;;;;22.27;41.41;101185.41;2074772;28;863;-56
2022/05/31 03:27:40;;;;;;;;;;;;;;;22.27;42.21;101191.69;2074717;28;826;-56
2022/05/31 03:28:41;;;;;;;;;;;;;;;22.28;42.32;101192.56;2074610;28;1964;-57
2022/05/31 03:29:45;;;;;;;;;;;;;;;22.27;42.28;101194.38;2074711;28;1014;-56
2022/05/31 03:30:45;;;;;;;;;;;;;;;22.27;42.11;101194.38;2074749;28;875;-57
2022/05/31 03:31:45;;;;;;;;;;;;;;;22.27;41.68;101190.78;2074735;28;982;-56
2022/05/31 03:32:46;;;;;;;;;;;;;;;22.28;41.42;101192.56;2074715;28;981;-57
2022/05/31 03:33:46;;;;;;;;;;;;;;;22.27;41.54;101185.41;2074733;28;766;-56
2022/05/31 03:34:46;;;;;;;;;;;;;;;22.27;42.32;101197.09;2074654;28;985;-57
2022/05/31 03:35:47;;;;;;;;;;;;;;;22.26;41.47;101200.72;2074891;28;657;-57
2022/05/31 03:36:47;;;;;;;;;;;;;;;22.26;41.45;101192.63;2074768;28;839;-57
2022/05/31 03:37:47;;;;;;;;;;;;;;;22.27;41.50;101196.19;2074678;28;1010;-56
2022/05/31 03:38:47;;;;;;;;;;;;;;;22.27;42.05;101190.78;2074662;28;874;-56
2022/05/31 03:39:47;;;;;;;;;;;;;;;22.26;41.81;101198.03;2074669;28;870;-57
2022/05/31 03:40:57;;;;;;;;;;;;;;;22.26;42.38;101184.53;2074695;28;1045;-56
2022/05/31 03:41:57;;;;;;;;;;;;;;;22.26;42.02;101189.94;2074698;28;831;-56
2022/05/31 03:43:01;;;;;;;;;;;;;;;22.26;42.43;101184.53;2065934;28;1033;-56
2022/05/31 03:44:01;;;;;;;;;;;;;;;22.25;42.46;101187.25;2066416;28;847;-57
2022/05/31 03:45:01;;;;;;;;;;;;;;;22.26;41.88;101189.03;2074901;28;934;-57
2022/05/31 03:46:02;;;;;;;;;;;;;;;22.26;41.84;101194.44;2074645;28;958;-57
2022/05/31 03:47:02;;;;;;;;;;;;;;;22.27;42.42;101189.00;2065802;28;1745;-56
2022/05/31 03:48:02;;;;;;;;;;;;;;;22.27;42.36;101190.78;2066004;28;946;-56
2022/05/31 03:49:03;;;;;;;;;;;;;;;22.26;42.49;101183.63;2074611;28;1958;-56
2022/05/31 03:50:03;;;;;;;;;;;;;;;22.26;42.56;101183.63;2074607;28;875;-57
2022/05/31 03:51:05;;;;;;;;;;;;;;;22.26;42.10;101173.75;2074798;28;772;-56
2022/05/31 03:52:05;;;;;;;;;;;;;;;22.25;42.10;101188.16;2074641;28;887;-56
2022/05/31 03:53:06;;;;;;;;;;;;;;;22.25;42.61;101177.38;2074713;28;859;-56
2022/05/31 03:54:07;;;;;;;;;;;;;;;22.25;41.97;101171.06;2074648;28;951;-56
2022/05/31 03:55:07;;;;;;;;;;;;;;;22.25;41.80;101165.69;2074586;28;1060;-57
2022/05/31 03:56:09;;;;;;;;;;;;;;;22.25;42.00;101171.06;2074639;28;784;-56
2022/05/31 03:57:13;;;;;;;;;;;;;;;22.25;41.72;101162.97;2074546;28;1756;-56
2022/05/31 03:58:13;;;;;;;;;;;;;;;22.26;42.47;101156.66;2074742;28;808;-57
2022/05/31 03:59:14;;;;;;;;;;;;;;;22.26;41.71;101162.03;2074589;28;868;-56
2022/05/31 04:00:14;;;;;;;;;;;;;;;22.26;42.06;101157.53;2074604;28;978;-56
2022/05/31 04:01:15;;;;;;;;;;;;;;;22.27;42.49;101159.31;2074575;28;1005;-56
2022/05/31 04:02:15;;;;;;;;;;;;;;;23.14;40.69;101156.09;2074604;28;796;-56
2022/05/31 04:03:15;;;;;;;;;;;;;;;24.08;37.87;101151.44;2074613;28;1057;-56
2022/05/31 04:04:15;;;;;;;;;;;;;;;24.69;37.18;101155.03;2074649;28;839;-56
2022/05/31 04:05:15;;;;;;;;;;;;;;;25.10;36.06;101153.19;2074585;28;852;-56
2022/05/31 04:06:15;;;;;;;;;;;;;;;25.54;35.64;101152.03;2074563;28;970;-56
2022/05/31 04:07:15;;;;;;;;;;;;;;;25.99;34.67;101145.22;2074560;28;855;-55
2022/05/31 04:08:16;;;;;;;;;;;;;;;26.28;33.34;101141.94;2074496;28;1898;-56
2022/05/31 04:09:16;;;;;;;;;;;;;;;26.56;32.79;101145.88;2074571;28;982;-56
2022/05/31 04:10:16;;;;;;;;;;;;;;;26.75;32.25;101138.50;2074529;28;982;-56
2022/05/31 04:11:16;;;;;;;;;;;;;;;26.82;32.27;101135.47;2065787;28;955;-56
2022/05/31 04:12:17;;;;;;;;;;;;;;;26.89;32.34;101140.47;2065894;28;769;-56
2022/05/31 04:13:17;;;;;;;;;;;;;;;27.10;31.95;101134.78;2074531;28;780;-56
2022/05/31 04:14:17;;;;;;;;;;;;;;;27.38;31.30;101138.63;2074598;28;803;-57
2022/05/31 04:15:17;;;;;;;;;;;;;;;27.49;30.91;101119.88;2074662;28;998;-57
2022/05/31 04:16:18;;;;;;;;;;;;;;;27.78;30.60;101111.84;2074629;28;745;-57
2022/05/31 04:17:18;;;;;;;;;;;;;;;27.87;30.44;101117.72;2074362;28;1417;-57
2022/05/31 04:18:20;;;;;;;;;;;;;;;27.79;30.15;101121.75;2074515;28;1050;-57
2022/05/31 04:19:21;;;;;;;;;;;;;;;27.84;30.84;101117.88;2074666;28;1105;-57
2022/05/31 04:20:21;;;;;;;;;;;;;;;28.12;30.31;101117.13;2076043;28;820;-56
2022/05/31 04:21:21;;;;;;;;;;;;;;;28.29;30.09;101116.06;2076059;28;796;-56
2022/05/31 04:22:22;;;;;;;;;;;;;;;28.20;29.72;101116.63;2076044;28;1025;-56
2022/05/31 04:24:41;;;;;;;;;;;;;;;28.57;29.11;101114.31;2076112;28;693;-56
2022/05/31 04:25:41;;;;;;;;;;;;;;;28.77;28.61;101113.09;2076064;28;776;-57
2022/05/31 04:26:46;;;;;;;;;;;;;;;28.78;28.87;101113.97;2075995;28;817;-56
2022/05/31 04:27:46;;;;;;;;;;;;;;;28.59;29.38;101116.97;2076060;28;926;-56
2022/05/31 04:28:46;;;;;;;;;;;;;;;29.01;28.16;101115.19;2075911;28;1998;-56
2022/05/31 04:29:46;;;;;;;;;;;;;;;29.26;28.34;101125.34;2076034;28;769;-56
2022/05/31 04:30:47;;;;;;;;;;;;;;;29.32;28.06;101118.63;2075989;28;982;-56
2022/05/31 04:31:48;;;;;;;;;;;;;;;29.27;28.23;101118.06;2075965;28;840;-56
2022/05/31 04:32:50;;;;;;;;;;;;;;;29.36;28.09;101119.28;2076028;28;827;-57
2022/05/31 04:33:51;;;;;;;;;;;;;;;29.50;27.74;101118.38;2075927;28;954;-56
2022/05/31 04:34:52;;;;;;;;;;;;;;;29.56;27.63;101115.25;2075963;28;823;-57
2022/05/31 04:36:03;;;;;;;;;;;;;;;29.70;27.16;101112.44;2075990;28;796;-56
2022/05/31 04:37:03;;;;;;;;;;;;;;;29.86;26.95;101108.69;2075943;28;1304;-56
2022/05/31 04:38:03;;;;;;;;;;;;;;;29.82;27.26;101115.31;2075914;28;1021;-56
2022/05/31 04:39:04;;;;;;;;;;;;;;;29.96;27.31;101112.53;2076048;28;792;-56
2022/05/31 04:40:04;;;;;;;;;;;;;;;30.06;26.52;101117.34;2075938;28;855;-56
2022/05/31 04:41:05;;;;;;;;;;;;;;;30.15;26.88;101112.13;2075960;28;792;-57
2022/05/31 04:42:07;;;;;;;;;;;;;;;30.25;26.95;101106.88;2075948;28;1025;-56
2022/05/31 04:43:07;;;;;;;;;;;;;;;30.58;26.40;101108.22;2075866;28;983;-56
2022/05/31 04:44:07;;;;;;;;;;;;;;;30.67;27.02;101109.41;2075894;28;903;-56
2022/05/31 04:45:08;;;;;;;;;;;;;;;30.74;26.26;101107.09;2075882;28;773;-57
2022/05/31 04:46:12;;;;;;;;;;;;;;;30.85;25.95;101106.31;2075868;28;974;-57
2022/05/31 04:47:12;;;;;;;;;;;;;;;30.93;26.05;101105.75;2075889;28;785;-56
2022/05/31 04:48:12;;;;;;;;;;;;;;;30.91;26.27;101103.16;2075829;28;982;-57
2022/05/31 04:49:12;;;;;;;;;;;;;;;31.08;25.78;101101.88;2075872;28;1898;-56
2022/05/31 04:50:12;;;;;;;;;;;;;;;31.09;25.79;101106.38;2075840;28;982;-56
2022/05/31 04:51:13;;;;;;;;;;;;;;;31.26;25.85;101106.97;2075867;28;789;-57
2022/05/31 04:52:13;;;;;;;;;;;;;;;31.22;25.80;101105.44;2075890;28;966;-57
2022/05/31 04:53:13;;;;;;;;;;;;;;;31.07;25.88;101105.59;2075785;28;884;-57
2022/05/31 04:54:16;;;;;;;;;;;;;;;31.15;25.70;101103.16;2075905;28;791;-57
2022/05/31 04:55:16;;;;;;;;;;;;;;;31.25;25.55;101105.22;2075809;28;772;-57
2022/05/31 04:56:19;;;;;;;;;;;;;;;31.42;25.19;101102.09;2075813;28;966;-57
2022/05/31 04:57:19;;;;;;;;;;;;;;;31.23;25.61;101094.41;2075899;28;811;-56
2022/05/31 04:58:19;;;;;;;;;;;;;;;31.46;25.08;101105.50;2075849;28;970;-57
2022/05/31 04:59:19;;;;;;;;;;;;;;;31.47;25.30;101101.75;2075719;28;836;-57
2022/05/31 05:00:19;;;;;;;;;;;;;;;31.67;24.86;101097.47;2075714;28;1088;-56
2022/05/31 05:01:21;;;;;;;;;;;;;;;31.59;25.10;101105.41;2075827;28;962;-57
2022/05/31 05:02:21;;;;;;;;;;;;;;;31.72;25.03;101100.75;2075766;28;843;-57
2022/05/31 05:03:21;;;;;;;;;;;;;;;31.78;24.72;101100.31;2075752;28;852;-57
2022/05/31 05:04:21;;;;;;;;;;;;;;;31.77;25.03;101101.28;2075723;28;974;-56
2022/05/31 05:05:21;;;;;;;;;;;;;;;31.71;24.68;101100.84;2075802;28;740;-57
2022/05/31 05:06:22;;;;;;;;;;;;;;;31.59;25.23;101103.53;2075734;28;593;-57
2022/05/31 05:07:22;;;;;;;;;;;;;;;31.62;24.94;101099.69;2075868;28;970;-57
2022/05/31 05:08:22;;;;;;;;;;;;;;;31.52;24.87;101098.66;2075745;28;1890;-57
2022/05/31 05:09:22;;;;;;;;;;;;;;;31.56;25.18;101098.28;2075668;28;883;-56
2022/05/31 05:10:23;;;;;;;;;;;;;;;31.64;24.84;101084.88;2075642;28;978;-57
2022/05/31 05:11:23;;;;;;;;;;;;;;;31.76;24.77;101088.59;2075704;28;973;-57
2022/05/31 05:12:23;;;;;;;;;;;;;;;31.89;24.78;101088.50;2075646;28;753;-56
2022/05/31 05:13:23;;;;;;;;;;;;;;;31.78;24.76;101082.97;2075668;28;934;-56
2022/05/31 05:14:24;;;;;;;;;;;;;;;31.70;24.80;101080.81;2075639;28;966;-56
2022/05/31 05:15:24;;;;;;;;;;;;;;;31.78;24.65;101067.44;2075010;28;785;-56
2022/05/31 05:16:25;;;;;;;;;;;;;;;32.06;24.23;101070.72;2075095;28;878;-57
2022/05/31 05:17:25;;;;;;;;;;;;;;;32.07;24.01;101068.88;2075445;28;1043;-57
2022/05/31 05:18:26;;;;;;;;;;;;;;;32.18;24.11;101073.47;2075681;28;994;-56
2022/05/31 05:19:26;;;;;;;;;;;;;;;32.09;23.91;101067.75;2075650;28;982;-56
2022/05/31 05:20:26;;;;;;;;;;;;;;;32.22;23.87;101067.63;2075734;28;788;-56
2022/05/31 05:21:26;;;;;;;;;;;;;;;32.21;23.89;101059.53;2075594;28;926;-56
2022/05/31 05:22:30;;;;;;;;;;;;;;;32.13;24.11;101060.13;2075579;28;856;-57
2022/05/31 05:23:30;;;;;;;;;;;;;;;32.23;23.90;101057.53;2075592;28;832;-57
2022/05/31 05:24:30;;;;;;;;;;;;;;;32.25;24.20;101063.78;2075574;28;683;-57
2022/05/31 05:25:31;;;;;;;;;;;;;;;32.32;23.74;101062.31;2075552;28;807;-58
2022/05/31 05:26:31;;;;;;;;;;;;;;;32.26;23.87;101062.78;2075566;28;1044;-56